Sumner, Washington
Current Conditions -  °F | °C
As of 9:58 PM on Thursday 30 Oct 2014 (Local Time) from KTCM Reporting Station
Overcast Overcast  
Wind Chill: 54°   Ceiling: 2900
Heat Index: 54°   Visibility: 10mi
Dew Point: 54°   Wind: 0mph
Humidity: 99%   Direction: NA
Pressure: 29.78"   Gusts: NA
Location:  47.2°N, 122.23°W
Report Text: KTCM 310458Z AUTO 00000KT 10SM OVC029 12/12 A2978 RMK AO2 RAE0433 SLP088 P0001 T01230121
Loading
Personal Weather Stations






























Interactive Weather Map
Tropical Storm Tracking
New forecast layout! Learn more

10-Day Weather Forecast

Advertisements
Track Severe Weather on mobile